Time;durP1;ratioP1;P1;durP2;ratioP2;P2;SDS_P1;SDS_P2;PMS_P1;PMS_P2;Temp;Humidity;BMP_temperature;BMP_pressure;BME280_temperature;BME280_humidity;BME280_pressure;Samples;Min_cycle;Max_cycle;Signal;HPM_P1;HPM_P2
2023/03/21 00:00:03;;;;;;;6.57;3.28;;;;;;;9.72;93.85;100598.09;5114147;28;20051;-90
2023/03/21 00:02:50;;;;;;;8.18;3.20;;;;;;;9.77;93.24;100611.97;5106412;28;20040;-87
2023/03/21 00:05:19;;;;;;;7.65;3.33;;;;;;;9.57;93.41;100582.84;5099115;28;20044;-88
2023/03/21 00:07:49;;;;;;;7.22;3.40;;;;;;;9.80;94.37;100642.72;5104072;28;20129;-92
2023/03/21 00:10:19;;;;;;;9.60;3.25;;;;;;;9.45;95.02;100588.59;5098637;28;20071;-89
2023/03/21 00:13:05;;;;;;;5.68;3.33;;;;;;;9.71;96.17;100621.97;5102061;28;20032;-90
2023/03/21 00:15:49;;;;;;;7.25;3.60;;;;;;;9.92;95.53;100636.09;5086700;28;20051;-89
2023/03/21 00:18:40;;;;;;;7.75;3.47;;;;;;;9.99;95.26;100629.63;5101225;28;20051;-86
2023/03/21 00:21:19;;;;;;;7.60;3.17;;;;;;;9.45;94.30;100538.38;5105975;28;20051;-85
2023/03/21 00:24:06;;;;;;;6.78;3.35;;;;;;;10.06;94.52;100624.03;5095174;28;20045;-90
2023/03/21 00:26:34;;;;;;;6.32;3.40;;;;;;;10.05;94.66;100630.25;5105465;28;20091;-88
2023/03/21 00:29:11;;;;;;;7.85;3.53;;;;;;;9.80;93.79;100573.97;5102701;28;20048;-94
2023/03/21 00:31:43;;;;;;;5.43;3.28;;;;;;;10.13;93.82;100614.91;5104304;28;20438;-88
2023/03/21 00:34:23;;;;;;;11.10;3.90;;;;;;;9.75;93.32;100560.09;5082077;28;20040;-91
2023/03/21 00:37:15;;;;;;;8.25;3.33;;;;;;;9.84;94.26;100586.16;5099142;28;20044;-91
2023/03/21 00:39:46;;;;;;;9.82;3.95;;;;;;;10.03;94.52;100624.16;5095683;28;20023;-90
2023/03/21 00:42:16;;;;;;;6.95;3.80;;;;;;;9.44;94.38;100534.88;5100494;28;20044;-89
2023/03/21 00:44:43;;;;;;;8.18;3.83;;;;;;;9.61;95.64;100578.28;5094359;28;20056;-89
2023/03/21 00:47:16;;;;;;;6.80;3.85;;;;;;;9.52;96.66;100590.09;5096989;28;20044;-88
2023/03/21 00:49:47;;;;;;;10.52;4.05;;;;;;;9.54;97.22;100597.97;5100664;28;20036;-88
2023/03/21 00:52:17;;;;;;;;;;;;;;;9.54;98.29;100608.53;5106053;28;20147;-87
2023/03/21 00:54:56;;;;;;;9.77;3.75;;;;;;;9.32;99.10;100576.78;5102676;28;19908;-90
2023/03/21 00:57:25;;;;;;;7.95;3.50;;;;;;;9.37;100.00;100607.41;5099383;28;20052;-90
2023/03/21 01:00:06;;;;;;;8.23;4.00;;;;;;;8.73;100.00;100512.13;5102591;28;20074;-90
2023/03/21 01:02:36;;;;;;;6.53;4.07;;;;;;;8.98;100.00;100556.06;5089943;28;20032;-88
2023/03/21 01:05:04;;;;;;;8.27;4.10;;;;;;;8.63;100.00;100510.75;5095484;28;20036;-91
2023/03/21 01:07:31;;;;;;;8.13;3.88;;;;;;;9.13;100.00;100593.34;5104163;28;20036;-88
2023/03/21 01:10:03;;;;;;;6.85;3.67;;;;;;;8.65;100.00;100508.91;5094896;28;20044;-88
2023/03/21 01:12:30;;;;;;;7.40;3.50;;;;;;;8.81;100.00;100537.38;5102154;28;20074;-89
2023/03/21 01:14:57;;;;;;;9.57;4.18;;;;;;;9.13;100.00;100587.19;5094077;28;20040;-92
2023/03/21 01:17:26;;;;;;;9.30;4.25;;;;;;;9.07;100.00;100582.16;5093065;28;20071;-93
2023/03/21 01:19:58;;;;;;;5.00;3.83;;;;;;;8.87;100.00;100563.56;5092194;28;20117;-92
2023/03/21 01:22:26;;;;;;;11.68;4.28;;;;;;;8.59;100.00;100505.63;5093453;28;20120;-93
2023/03/21 01:24:55;;;;;;;10.10;4.20;;;;;;;8.77;100.00;100537.50;5091999;28;20088;-88
2023/03/21 01:27:44;;;;;;;10.85;4.10;;;;;;;9.08;100.00;100581.25;5100289;28;20040;-88
2023/03/21 01:30:16;;;;;;;7.40;4.10;;;;;;;8.51;100.00;100490.06;5101287;28;20063;-88
2023/03/21 01:32:55;;;;;;;9.63;4.10;;;;;;;9.07;100.00;100580.38;5095189;28;20059;-87
2023/03/21 01:35:28;;;;;;;10.93;4.70;;;;;;;8.46;100.00;100483.25;5103195;28;20036;-87
2023/03/21 01:38:09;;;;;;;7.85;4.10;;;;;;;8.70;100.00;100528.06;5103037;28;20048;-85
2023/03/21 01:40:37;;;;;;;10.40;4.80;;;;;;;8.34;100.00;100481.94;5103956;28;20129;-89
2023/03/21 01:43:24;;;;;;;7.57;4.47;;;;;;;8.32;100.00;100478.50;5098524;28;20044;-90
2023/03/21 01:46:21;;;;;;;8.25;4.65;;;;;;;8.91;100.00;100581.00;5101279;28;20040;-90
2023/03/21 01:49:08;;;;;;;7.80;4.75;;;;;;;8.29;100.00;100475.91;5102940;28;20101;-91
2023/03/21 01:51:46;;;;;;;7.68;4.55;;;;;;;8.31;100.00;100482.88;5099315;28;20152;-86
2023/03/21 01:54:24;;;;;;;8.98;4.40;;;;;;;8.76;100.00;100548.97;5105160;28;20051;-87
2023/03/21 01:56:55;;;;;;;11.38;4.88;;;;;;;8.53;100.00;100516.41;5098569;28;20108;-88
2023/03/21 01:59:39;;;;;;;9.02;4.72;;;;;;;8.91;100.00;100570.44;5107152;28;20059;-89
2023/03/21 02:02:12;;;;;;;12.57;5.15;;;;;;;8.92;100.00;100574.81;5100956;28;20064;-86
2023/03/21 02:04:49;;;;;;;10.25;5.07;;;;;;;8.32;100.00;100473.22;5101755;28;20032;-88
2023/03/21 02:07:36;;;;;;;9.05;4.85;;;;;;;8.59;100.00;100517.06;5106052;28;20122;-87
2023/03/21 02:10:10;;;;;;;10.00;5.20;;;;;;;8.29;100.00;100468.88;5106408;28;20096;-87
2023/03/21 02:12:40;;;;;;;8.48;4.82;;;;;;;8.58;100.00;100517.97;5105580;28;20041;-88
2023/03/21 02:15:18;;;;;;;6.50;4.43;;;;;;;8.79;100.00;100556.78;5105119;28;20028;-86
2023/03/21 02:18:10;;;;;;;9.63;5.05;;;;;;;8.76;100.00;100554.25;5109739;28;20051;-86
2023/03/21 02:21:29;;;;;;;8.90;4.78;;;;;;;8.36;100.00;100483.56;5108633;28;20027;-88
2023/03/21 02:24:10;;;;;;;10.77;5.27;;;;;;;8.43;100.00;100503.56;5063345;28;20049;-90
2023/03/21 02:26:53;;;;;;;9.00;4.60;;;;;;;8.69;100.00;100550.09;5050641;28;20463;-88
2023/03/21 02:30:03;;;;;;;10.80;5.20;;;;;;;8.65;100.00;100548.53;5096038;28;20500;-86
2023/03/21 02:33:08;;;;;;;10.35;5.05;;;;;;;8.61;100.00;100541.63;5098518;28;20044;-89
2023/03/21 02:35:59;;;;;;;7.43;5.00;;;;;;;8.13;100.00;100470.34;5098614;28;20055;-88
2023/03/21 02:38:46;;;;;;;11.38;5.40;;;;;;;8.00;100.00;100442.69;5097298;28;20051;-89
2023/03/21 02:41:31;;;;;;;9.73;5.15;;;;;;;8.36;100.00;100509.97;5097828;28;20110;-86
2023/03/21 02:44:17;;;;;;;6.82;4.88;;;;;;;8.51;100.00;100540.22;5101862;28;20036;-88
2023/03/21 02:46:54;;;;;;;11.45;5.13;;;;;;;8.49;100.00;100533.28;5110210;28;20058;-86
2023/03/21 02:49:53;;;;;;;8.45;4.93;;;;;;;8.47;100.00;100535.13;5095902;28;20040;-87
2023/03/21 02:52:39;;;;;;;8.70;5.00;;;;;;;7.90;100.00;100442.13;5110384;27;20066;-85
2023/03/21 02:55:18;;;;;;;8.32;5.32;;;;;;;8.05;100.00;100469.72;5111982;28;20086;-88
2023/03/21 03:00:32;;;;;;;11.00;5.10;;;;;;;7.86;100.00;100439.69;5186663;22;21358;-86
2023/03/21 03:02:59;;;;;;;11.50;5.80;;;;;;;8.46;100.00;100528.13;5075388;28;20068;-87
2023/03/21 03:05:47;;;;;;;8.70;5.05;;;;;;;7.92;100.00;100435.03;5064318;28;20028;-87
2023/03/21 03:08:47;;;;;;;9.60;4.93;;;;;;;7.96;100.00;100438.44;5047272;28;20100;-86
2023/03/21 03:11:34;;;;;;;9.25;5.30;;;;;;;8.42;100.00;100511.53;5058588;28;20029;-86
2023/03/21 03:14:15;;;;;;;7.88;5.20;;;;;;;8.60;100.00;100533.75;5046987;28;20029;-88
2023/03/21 03:17:19;;;;;;;11.25;5.40;;;;;;;8.51;100.00;100500.63;5067743;28;20043;-86
2023/03/21 03:20:23;;;;;;;10.93;5.40;;;;;;;8.70;100.00;100530.72;5073767;28;20108;-88
2023/03/21 03:23:20;;;;;;;7.60;5.25;;;;;;;8.08;100.00;100441.47;5059199;28;20029;-91
2023/03/21 03:25:55;;;;;;;11.32;5.13;;;;;;;8.58;100.00;100532.94;5063676;28;20028;-87
2023/03/21 03:28:37;;;;;;;9.93;5.38;;;;;;;8.18;100.00;100467.53;5143889;22;20090;-87
2023/03/21 03:31:07;;;;;;;9.05;5.20;;;;;;;7.88;100.00;100428.13;5111919;28;20055;-86
2023/03/21 03:33:40;;;;;;;11.85;5.43;;;;;;;8.20;100.00;100486.78;5113265;28;20035;-88
2023/03/21 03:36:26;;;;;;;10.73;5.18;;;;;;;8.06;100.00;100453.00;5109768;28;20024;-91
2023/03/21 03:39:04;;;;;;;8.90;5.18;;;;;;;8.32;100.00;100496.97;5107374;28;20080;-86
2023/03/21 03:41:38;;;;;;;8.57;5.15;;;;;;;7.95;100.00;100421.75;5114311;28;20773;-91
2023/03/21 03:44:27;;;;;;;11.90;5.50;;;;;;;7.94;100.00;100417.38;5107782;28;20099;-89
2023/03/21 03:47:16;;;;;;;10.23;5.28;;;;;;;8.29;100.00;100483.84;5111786;28;20055;-88
2023/03/21 03:50:09;;;;;;;;;;;;;;;8.51;100.00;100511.19;5105467;28;20100;-88
2023/03/21 03:52:43;;;;;;;9.57;5.25;;;;;;;8.15;100.00;100442.13;5115233;28;19961;-87
2023/03/21 03:55:26;;;;;;;9.65;4.93;;;;;;;8.21;100.00;100459.50;5107118;28;20059;-85
2023/03/21 03:57:54;;;;;;;9.10;5.38;;;;;;;8.49;100.00;100512.19;5109252;28;20044;-86
2023/03/21 04:00:21;;;;;;;8.68;5.15;;;;;;;8.20;100.00;100456.00;5107459;28;20097;-89
2023/03/21 04:02:48;;;;;;;8.50;5.22;;;;;;;7.91;100.00;100409.56;5103421;28;20039;-93
2023/03/21 04:05:19;;;;;;;8.35;5.10;;;;;;;8.59;100.00;100503.00;5108026;28;20043;-88
2023/03/21 04:07:51;;;;;;;12.75;6.20;;;;;;;8.38;100.00;100455.34;5107379;28;20109;-89
2023/03/21 04:10:27;;;;;;;8.23;5.38;;;;;;;8.43;100.00;100452.56;5105312;28;20040;-87
2023/03/21 04:12:57;;;;;;;8.85;5.30;;;;;;;8.87;100.00;100505.44;5115028;28;20044;-87
2023/03/21 04:15:24;;;;;;;10.77;5.63;;;;;;;8.71;100.00;100466.44;5123592;22;20036;-89
2023/03/21 04:17:52;;;;;;;11.25;5.57;;;;;;;9.00;100.00;100498.78;5093815;28;20076;-86
2023/03/21 04:20:19;;;;;;;11.65;5.75;;;;;;;8.41;100.00;100396.34;5080920;28;20100;-86
2023/03/21 04:23:05;;;;;;;8.07;5.20;;;;;;;8.71;100.00;100441.81;5128931;27;20051;-86
2023/03/21 04:25:35;;;;;;;10.07;5.72;;;;;;;8.54;100.00;100402.00;5108846;27;20070;-87
2023/03/21 04:28:22;;;;;;;10.60;5.07;;;;;;;9.09;99.72;100494.00;5241121;22;20042;-84
2023/03/21 04:31:00;;;;;;;10.77;6.00;;;;;;;8.56;98.88;100401.03;5127511;27;20036;-88
2023/03/21 04:33:49;;;;;;;7.70;5.20;;;;;;;8.78;98.92;100443.31;5110198;28;20058;-91
2023/03/21 04:36:26;;;;;;;10.80;5.90;;;;;;;9.02;99.58;100489.88;5119527;27;20040;-88
2023/03/21 04:39:00;;;;;;;11.82;5.35;;;;;;;8.79;99.32;100461.75;5115301;27;20071;-92
2023/03/21 04:41:29;;;;;;;9.68;5.50;;;;;;;8.72;99.38;100448.81;5114924;28;20054;-93
2023/03/21 04:43:57;;;;;;;11.35;5.47;;;;;;;8.99;99.25;100487.34;5099387;28;20039;-90
2023/03/21 04:46:23;;;;;;;10.25;6.38;;;;;;;8.83;99.28;100449.25;5112630;28;20510;-94
2023/03/21 04:48:56;;;;;;;8.60;5.63;;;;;;;8.48;99.15;100391.69;5118711;28;20075;-95
2023/03/21 04:51:29;;;;;;;12.23;6.13;;;;;;;8.74;98.76;100434.63;5120132;28;20129;-92
2023/03/21 04:53:56;;;;;;;9.77;5.80;;;;;;;8.90;99.72;100494.78;5095179;28;20058;-89
2023/03/21 04:56:35;;;;;;;12.13;5.85;;;;;;;8.67;100.00;100470.09;5109452;28;20112;-91
2023/03/21 04:59:07;;;;;;;12.70;6.18;;;;;;;8.41;100.00;100449.13;5112682;28;20047;-90
2023/03/21 05:01:34;;;;;;;13.00;6.25;;;;;;;8.61;100.00;100504.66;5119172;28;20454;-93
2023/03/21 05:04:02;;;;;;;13.45;6.05;;;;;;;8.56;100.00;100503.97;5119786;28;20484;-92
2023/03/21 05:06:30;;;;;;;9.63;6.30;;;;;;;8.38;100.00;100467.69;5092709;28;20071;-92
2023/03/21 05:09:02;;;;;;;10.23;6.10;;;;;;;8.66;100.00;100504.47;5115981;28;20043;-90
2023/03/21 05:11:31;;;;;;;10.05;6.20;;;;;;;8.65;100.00;100489.59;5109040;28;20040;-90
2023/03/21 05:13:58;;;;;;;9.20;6.20;;;;;;;8.72;100.00;100505.13;5110172;28;20050;-88
2023/03/21 05:16:29;;;;;;;11.98;6.75;;;;;;;8.63;100.00;100476.44;5104531;28;20097;-90
2023/03/21 05:19:03;;;;;;;11.25;6.57;;;;;;;8.62;100.00;100479.13;5114336;28;20283;-89
2023/03/21 05:21:40;;;;;;;11.77;6.88;;;;;;;8.52;100.00;100477.72;5125355;28;20040;-89
2023/03/21 05:24:19;;;;;;;9.80;6.75;;;;;;;8.49;100.00;100489.28;5119901;28;20554;-88
2023/03/21 05:26:51;;;;;;;12.10;6.88;;;;;;;8.39;100.00;100491.38;5120070;28;20043;-89
2023/03/21 05:29:18;;;;;;;11.68;6.97;;;;;;;8.33;100.00;100485.50;5121250;28;20048;-88
2023/03/21 05:31:47;;;;;;;15.07;7.55;;;;;;;8.26;100.00;100476.88;5109155;28;20107;-89
2023/03/21 05:34:13;;;;;;;9.70;7.05;;;;;;;8.30;100.00;100486.44;5122765;28;20067;-89
2023/03/21 05:36:40;;;;;;;16.05;7.38;;;;;;;8.19;100.00;100471.88;5129633;28;20031;-89
2023/03/21 05:39:10;;;;;;;12.45;7.65;;;;;;;8.04;100.00;100444.28;5127976;28;20024;-90
2023/03/21 05:41:39;;;;;;;13.95;7.70;;;;;;;8.24;100.00;100489.28;5126847;28;20089;-89
2023/03/21 05:44:17;;;;;;;16.40;7.45;;;;;;;7.83;100.00;100419.56;5119944;28;20039;-90
2023/03/21 05:46:44;;;;;;;15.52;7.05;;;;;;;8.31;100.00;100490.78;5121752;28;20107;-90
2023/03/21 05:49:11;;;;;;;13.00;7.18;;;;;;;8.30;100.00;100481.16;5117442;28;20028;-88
2023/03/21 05:51:40;;;;;;;16.80;7.88;;;;;;;8.26;100.00;100476.88;5127833;27;20027;-90
2023/03/21 05:54:15;;;;;;;12.75;7.65;;;;;;;8.19;100.00;100469.22;5133575;27;20088;-90
2023/03/21 05:56:50;;;;;;;11.95;7.25;;;;;;;8.23;100.00;100482.28;5094521;28;20063;-89
2023/03/21 05:59:16;;;;;;;10.57;7.20;;;;;;;8.22;100.00;100482.31;5128561;27;20096;-88
2023/03/21 06:01:44;;;;;;;12.57;7.50;;;;;;;8.21;100.00;100478.81;5129342;28;20040;-89
2023/03/21 06:04:23;;;;;;;14.00;7.43;;;;;;;8.22;100.00;100482.31;5120020;28;20430;-90
2023/03/21 06:06:52;;;;;;;12.02;7.70;;;;;;;8.23;100.00;100486.69;5127808;28;20043;-89
2023/03/21 06:09:20;;;;;;;12.18;7.65;;;;;;;8.24;100.00;100481.34;5130046;27;20095;-89
2023/03/21 06:11:50;;;;;;;15.50;7.90;;;;;;;8.22;100.00;100484.97;5128163;28;20043;-90
2023/03/21 06:14:21;;;;;;;11.32;7.63;;;;;;;8.20;100.00;100490.28;5127787;28;20051;-92
2023/03/21 06:16:57;;;;;;;12.40;7.57;;;;;;;8.16;100.00;100485.19;5118719;28;20048;-90
2023/03/21 06:19:25;;;;;;;13.95;7.50;;;;;;;8.08;100.00;100475.75;5112273;28;20052;-89
2023/03/21 06:21:53;;;;;;;14.10;8.02;;;;;;;8.16;100.00;100483.41;5121579;28;20103;-89
2023/03/21 06:24:22;;;;;;;12.00;6.93;;;;;;;8.21;100.00;100493.78;5122808;28;20042;-89
2023/03/21 06:26:49;;;;;;;14.05;7.70;;;;;;;8.18;100.00;100472.81;5124841;28;20047;-89
2023/03/21 06:29:16;;;;;;;15.18;7.78;;;;;;;8.25;100.00;100490.13;5122583;28;20078;-90
2023/03/21 06:31:43;;;;;;;13.30;7.22;;;;;;;8.29;100.00;100491.75;5132592;28;20050;-88
2023/03/21 06:34:10;;;;;;;13.95;7.65;;;;;;;8.30;100.00;100493.47;5129255;28;20047;-90
2023/03/21 06:36:37;;;;;;;13.25;7.70;;;;;;;8.35;100.00;100494.19;5135275;27;20043;-91
2023/03/21 06:39:07;;;;;;;12.18;7.68;;;;;;;8.41;100.00;100500.13;5126401;28;20046;-92
2023/03/21 06:41:35;;;;;;;13.63;7.80;;;;;;;8.41;100.00;100493.97;5110188;28;20044;-92
2023/03/21 06:44:04;;;;;;;14.52;7.35;;;;;;;8.31;100.00;100458.25;5127000;28;20058;-89
2023/03/21 06:46:31;;;;;;;13.13;7.05;;;;;;;8.22;100.00;100437.47;5133912;28;20043;-91
2023/03/21 06:48:59;;;;;;;13.40;7.68;;;;;;;8.60;100.00;100502.94;5132089;27;20044;-91
2023/03/21 06:51:34;;;;;;;13.50;8.25;;;;;;;8.72;100.00;100496.34;5130341;27;20044;-90
2023/03/21 06:54:04;;;;;;;14.90;7.68;;;;;;;8.86;100.00;100483.47;5121767;28;20050;-91
2023/03/21 06:56:31;;;;;;;11.30;7.22;;;;;;;9.04;100.00;100481.91;5104870;28;20043;-90
2023/03/21 06:58:58;;;;;;;10.77;7.28;;;;;;;9.31;100.00;100487.84;5120147;28;20104;-90
2023/03/21 07:01:29;;;;;;;8.43;6.80;;;;;;;9.41;100.00;100466.31;5115819;28;20035;-90
2023/03/21 07:03:57;;;;;;;12.90;7.30;;;;;;;9.71;100.00;100487.09;5118683;28;20043;-90
2023/03/21 07:06:25;;;;;;;12.05;7.57;;;;;;;9.95;100.00;100486.03;5117381;27;20071;-89
2023/03/21 07:08:54;;;;;;;15.15;7.35;;;;;;;10.22;99.15;100478.75;5121161;27;20048;-90
2023/03/21 07:11:22;;;;;;;13.07;7.30;;;;;;;10.39;95.35;100459.47;5123370;28;20084;-90
2023/03/21 07:13:51;;;;;;;14.82;7.80;;;;;;;10.73;92.60;100466.69;5101256;28;20046;-90
2023/03/21 07:16:21;;;;;;;12.33;7.37;;;;;;;10.97;89.52;100488.56;5112055;28;20078;-88
2023/03/21 07:18:49;;;;;;;12.10;7.93;;;;;;;10.62;90.37;100450.47;5119599;28;20067;-90
2023/03/21 07:21:18;;;;;;;14.32;7.82;;;;;;;10.81;91.83;100485.75;5112835;27;20043;-89
2023/03/21 07:23:49;;;;;;;12.27;7.20;;;;;;;11.03;90.81;100499.72;5107245;28;20096;-90
2023/03/21 07:26:21;;;;;;;13.23;7.75;;;;;;;11.01;87.04;100484.84;5115420;28;20047;-91
2023/03/21 07:28:58;;;;;;;13.93;7.47;;;;;;;11.22;87.17;100505.84;5114711;28;20048;-89
2023/03/21 07:31:27;;;;;;;17.23;8.40;;;;;;;11.22;87.44;100492.59;5100022;28;20036;-91
2023/03/21 07:34:05;;;;;;;12.93;7.70;;;;;;;11.40;87.17;100474.94;5113906;28;20055;-92
2023/03/21 07:36:33;;;;;;;15.48;8.35;;;;;;;11.72;83.70;100491.06;5118742;28;20051;-90
2023/03/21 07:39:03;;;;;;;12.68;7.00;;;;;;;11.49;81.20;100452.44;5111049;28;20537;-91
2023/03/21 07:41:30;;;;;;;12.80;7.97;;;;;;;11.75;80.58;100494.44;5116848;27;20083;-90
2023/03/21 07:44:04;;;;;;;12.90;7.72;;;;;;;11.92;81.59;100514.84;5116102;28;20550;-91
2023/03/21 07:46:34;;;;;;;13.35;7.65;;;;;;;11.91;80.91;100508.66;5115550;28;20392;-91
2023/03/21 07:49:09;;;;;;;12.30;7.68;;;;;;;11.77;81.72;100512.97;5114271;28;20416;-91
2023/03/21 07:51:41;;;;;;;11.20;7.13;;;;;;;11.32;83.78;100493.03;5109638;28;20035;-91
2023/03/21 07:54:19;;;;;;;14.98;7.90;;;;;;;11.17;86.78;100504.38;5101378;27;20047;-90
2023/03/21 07:56:52;;;;;;;13.52;7.90;;;;;;;11.06;88.40;100504.88;5110829;28;20118;-92
2023/03/21 07:59:27;;;;;;;13.35;7.28;;;;;;;11.05;89.11;100516.41;5112668;27;20047;-89
2023/03/21 08:01:58;;;;;;;13.20;7.80;;;;;;;11.02;90.73;100471.47;5122921;27;20050;-90
2023/03/21 08:04:56;;;;;;;21.67;8.35;;;;;;;11.40;89.01;100480.25;5117434;27;20035;-92
2023/03/21 08:07:50;;;;;;;12.75;7.80;;;;;;;11.41;86.66;100444.84;5114398;28;20108;-90
2023/03/21 08:10:21;;;;;;;13.32;7.68;;;;;;;11.79;85.71;100492.50;5105344;28;20138;-90
2023/03/21 08:12:58;;;;;;;12.68;7.30;;;;;;;12.12;84.41;100495.25;5114836;27;20112;-91
2023/03/21 08:15:28;;;;;;;14.25;7.22;;;;;;;12.16;80.38;100439.25;5118074;28;20043;-90
2023/03/21 08:18:10;;;;;;;16.70;7.22;;;;;;;12.57;77.26;100470.72;5126947;27;20039;-89
2023/03/21 08:20:43;;;;;;;31.60;8.05;;;;;;;13.08;79.63;100487.38;5121145;28;20073;-92
2023/03/21 08:23:12;;;;;;;12.68;7.32;;;;;;;12.98;76.38;100463.97;5116903;28;20102;-90
2023/03/21 08:25:40;;;;;;;12.40;6.57;;;;;;;13.40;77.41;100485.59;5117213;28;20039;-90
2023/03/21 08:28:14;;;;;;;13.57;6.63;;;;;;;13.58;73.29;100488.06;5112589;28;20067;-91
2023/03/21 08:30:41;;;;;;;12.65;6.70;;;;;;;13.48;71.88;100486.03;5109829;28;20063;-92
2023/03/21 08:33:18;;;;;;;12.80;6.30;;;;;;;13.04;71.88;100457.47;5116216;28;20043;-90
2023/03/21 08:35:46;;;;;;;15.55;6.82;;;;;;;12.83;74.36;100491.41;5097646;28;20082;-91
2023/03/21 08:38:14;;;;;;;11.70;6.65;;;;;;;12.35;77.32;100454.19;5097486;28;20043;-90
2023/03/21 08:40:41;;;;;;;14.75;7.38;;;;;;;12.29;78.53;100477.47;5098260;28;20067;-90
2023/03/21 08:43:11;;;;;;;15.75;7.53;;;;;;;12.05;78.53;100477.91;5121743;28;20040;-91
2023/03/21 08:45:40;;;;;;;14.32;7.25;;;;;;;12.10;81.16;100497.97;5105759;28;20073;-90
2023/03/21 08:48:08;;;;;;;12.27;7.13;;;;;;;12.08;79.79;100499.00;5111613;28;20040;-91
2023/03/21 08:51:28;;;;;;;12.27;7.07;;;;;;;11.74;81.53;100422.88;5101767;28;20081;-90
2023/03/21 08:53:57;;;;;;;14.63;7.07;;;;;;;12.54;79.93;100494.78;5116355;28;20103;-92
2023/03/21 08:56:25;;;;;;;13.65;6.93;;;;;;;12.65;80.06;100482.63;5115165;28;20061;-89
2023/03/21 08:58:57;;;;;;;12.20;6.88;;;;;;;12.56;75.72;100442.44;5114610;28;20433;-91
2023/03/21 09:01:25;;;;;;;14.15;7.18;;;;;;;12.38;76.69;100449.59;5116735;28;20062;-90
2023/03/21 09:03:52;;;;;;;11.45;6.95;;;;;;;12.45;79.88;100504.06;5099439;28;20035;-92
2023/03/21 09:06:23;;;;;;;11.15;6.63;;;;;;;11.97;81.18;100442.94;5113318;28;20043;-91
2023/03/21 09:08:55;;;;;;;11.85;6.75;;;;;;;12.04;79.89;100474.41;5110194;28;20039;-92
2023/03/21 09:11:22;;;;;;;15.05;7.47;;;;;;;11.97;80.95;100451.75;5121153;27;20049;-88
2023/03/21 09:13:49;;;;;;;13.73;7.18;;;;;;;12.14;81.63;100496.84;5132888;27;20053;-89
2023/03/21 09:16:17;;;;;;;12.10;7.60;;;;;;;12.18;81.35;100478.97;5130320;27;20061;-89
2023/03/21 09:18:47;;;;;;;14.00;7.00;;;;;;;12.32;78.17;100479.13;5122367;27;20066;-88
2023/03/21 09:21:17;;;;;;;13.60;6.80;;;;;;;12.48;77.75;100493.31;5126471;27;20035;-89
2023/03/21 09:23:47;;;;;;;10.60;6.97;;;;;;;12.59;77.01;100492.75;5126841;27;20095;-89
2023/03/21 09:26:27;;;;;;;;;;;;;;;12.53;76.50;100495.72;5077700;28;20068;-89
2023/03/21 09:28:57;;;;;;;14.73;7.65;;;;;;;12.44;77.67;100501.50;5083538;28;19919;-90
2023/03/21 09:31:27;;;;;;;14.57;7.57;;;;;;;12.52;77.91;100494.84;5084085;28;20198;-90
2023/03/21 09:33:58;;;;;;;16.00;8.45;;;;;;;12.55;76.31;100491.19;5068512;28;20040;-91
2023/03/21 09:36:29;;;;;;;14.95;7.15;;;;;;;12.47;76.62;100485.41;5079687;28;20049;-90
2023/03/21 09:38:58;;;;;;;13.65;7.60;;;;;;;12.26;76.66;100463.53;5073304;28;20080;-90
2023/03/21 09:42:15;;;;;;;13.77;7.32;;;;;;;12.47;76.80;100491.59;5076951;28;20080;-91
2023/03/21 09:45:15;;;;;;;14.70;6.63;;;;;;;12.69;76.19;100496.63;5069921;28;20037;-91
2023/03/21 09:48:01;;;;;;;13.10;6.75;;;;;;;12.86;75.04;100472.63;5074954;28;20035;-89
2023/03/21 09:50:37;;;;;;;10.75;6.65;;;;;;;13.06;72.44;100462.72;5085501;28;20047;-90
2023/03/21 09:53:24;;;;;;;13.52;6.93;;;;;;;13.26;71.61;100483.72;5082546;28;20372;-89
2023/03/21 09:55:52;;;;;;;14.30;6.47;;;;;;;13.42;70.40;100487.22;5086151;28;20040;-90
2023/03/21 09:58:29;;;;;;;12.13;6.93;;;;;;;13.31;69.08;100479.88;5082979;28;20073;-91
2023/03/21 10:01:09;;;;;;;17.55;6.60;;;;;;;13.34;68.67;100498.31;5074365;28;20052;-92
2023/03/21 10:03:40;;;;;;;14.87;6.47;;;;;;;13.11;68.57;100485.41;5083871;28;20032;-91
2023/03/21 10:06:14;;;;;;;14.23;5.90;;;;;;;13.08;68.95;100492.69;5076685;28;20063;-89
2023/03/21 10:08:51;;;;;;;15.20;6.60;;;;;;;13.00;69.49;100495.78;5088892;28;20048;-90
2023/03/21 10:11:47;;;;;;;10.57;6.22;;;;;;;13.21;70.16;100496.44;5086226;28;20065;-89
2023/03/21 10:14:23;;;;;;;14.43;6.47;;;;;;;12.94;70.66;100481.03;5081067;28;20056;-90
2023/03/21 10:17:27;;;;;;;12.80;6.15;;;;;;;12.99;70.46;100489.63;5087913;28;20048;-88
2023/03/21 10:20:09;;;;;;;11.80;6.07;;;;;;;12.99;71.89;100486.97;5090476;28;20079;-88
2023/03/21 10:22:38;;;;;;;12.25;6.80;;;;;;;13.21;72.55;100483.16;5108529;28;20047;-88
2023/03/21 10:25:10;;;;;;;15.55;6.82;;;;;;;13.36;69.77;100454.81;5093243;28;20036;-88
2023/03/21 10:27:39;;;;;;;12.05;6.40;;;;;;;13.47;69.90;100485.16;5094096;28;20071;-89
2023/03/21 10:30:09;;;;;;;14.25;6.80;;;;;;;13.18;69.71;100435.44;5091531;28;20058;-89
2023/03/21 10:32:42;;;;;;;12.20;6.57;;;;;;;13.36;69.17;100445.03;5089882;28;20048;-90
2023/03/21 10:35:13;;;;;;;12.13;6.05;;;;;;;13.19;69.31;100453.13;5093691;28;20029;-90
2023/03/21 10:37:44;;;;;;;10.38;6.07;;;;;;;13.05;71.04;100434.41;5087458;28;20120;-88
2023/03/21 10:40:16;;;;;;;12.55;6.28;;;;;;;13.27;70.49;100477.47;5073902;28;20029;-88
2023/03/21 10:42:44;;;;;;;10.60;6.50;;;;;;;12.97;70.83;100453.44;5079464;28;20029;-91
2023/03/21 10:45:20;;;;;;;12.50;5.75;;;;;;;13.02;71.93;100477.09;5088428;28;20029;-92
2023/03/21 10:47:50;;;;;;;11.85;5.70;;;;;;;12.77;72.66;100449.22;5086407;28;20048;-91
2023/03/21 10:50:24;;;;;;;11.27;5.97;;;;;;;12.80;74.19;100486.25;5088137;28;20053;-89
2023/03/21 10:52:59;;;;;;;13.90;6.25;;;;;;;12.44;78.67;100443.06;5090682;28;20037;-89
2023/03/21 10:55:35;;;;;;;11.35;6.13;;;;;;;12.13;83.06;100434.09;5087483;28;20071;-89
2023/03/21 10:58:09;;;;;;;14.43;6.70;;;;;;;12.29;87.02;100482.78;5085002;28;20464;-90
2023/03/21 11:00:43;;;;;;;13.40;6.63;;;;;;;12.03;93.34;100488.59;5081826;28;20040;-93
2023/03/21 11:03:31;;;;;;;12.95;7.00;;;;;;;11.72;95.78;100469.84;5081998;28;20048;-91
2023/03/21 11:06:07;;;;;;;16.45;7.03;;;;;;;11.59;100.00;100480.22;5087272;28;20052;-90
2023/03/21 11:08:44;;;;;;;15.35;7.25;;;;;;;11.57;100.00;100484.72;5077610;28;20585;-91
2023/03/21 11:11:26;;;;;;;13.75;7.47;;;;;;;11.55;100.00;100479.50;5071921;28;20112;-90
2023/03/21 11:13:59;;;;;;;13.65;7.85;;;;;;;11.62;100.00;100479.22;5074968;28;20117;-89
2023/03/21 11:16:32;;;;;;;19.13;8.32;;;;;;;11.47;100.00;100457.81;5077395;28;20051;-91
2023/03/21 11:19:02;;;;;;;16.20;8.82;;;;;;;11.55;100.00;100473.34;5084449;28;20688;-89
2023/03/21 11:21:35;;;;;;;18.08;9.23;;;;;;;11.50;100.00;100456.78;5075352;28;20040;-92
2023/03/21 11:24:04;;;;;;;21.98;9.35;;;;;;;11.44;100.00;100460.63;5080053;28;20041;-91
2023/03/21 11:26:36;;;;;;;15.25;8.57;;;;;;;11.42;100.00;100482.84;5084115;28;20464;-91
2023/03/21 11:29:26;;;;;;;16.83;8.68;;;;;;;11.30;100.00;100475.47;5070413;28;20136;-89
2023/03/21 11:32:35;;;;;;;15.20;8.45;;;;;;;11.36;100.00;100478.69;5052257;28;20041;-91
2023/03/21 11:35:19;;;;;;;19.45;9.50;;;;;;;11.30;100.00;100462.22;5042545;28;20045;-89
2023/03/21 11:37:55;;;;;;;16.38;8.00;;;;;;;11.31;100.00;100454.22;5041099;28;20059;-89
2023/03/21 11:40:33;;;;;;;15.88;7.68;;;;;;;11.34;100.00;100477.03;5054869;28;20094;-91
2023/03/21 11:43:03;;;;;;;14.05;7.50;;;;;;;11.14;100.00;100456.81;5072938;28;20122;-90
2023/03/21 11:45:33;;;;;;;13.77;7.25;;;;;;;10.94;100.00;100438.34;5069020;28;20028;-90
2023/03/21 11:48:14;;;;;;;13.20;7.55;;;;;;;11.08;100.00;100468.56;5067546;28;20106;-91
2023/03/21 11:51:02;;;;;;;15.23;8.48;;;;;;;10.84;100.00;100430.84;5062337;28;20126;-92
2023/03/21 11:53:35;;;;;;;16.35;8.60;;;;;;;10.37;100.00;100364.25;5058369;28;20040;-91
2023/03/21 11:56:21;;;;;;;13.63;8.55;;;;;;;10.98;100.00;100461.13;5067013;28;20617;-92
2023/03/21 11:59:14;;;;;;;15.45;8.95;;;;;;;11.03;100.00;100467.03;5057509;28;20068;-91